Aqualink II — WDF7372 — position and weather

sailwx.info

Track history (hours):
 
Tides and Currents Weather Stations Pressure Air Temp Water Temp Dewpoint Dewpoint Depression Visibility Wind Speed Wind Dir Waves Ship Positions

Aqualink II

Owner: Catalina Channel Express Inc, San Pedro, CA. More information available from US FCC via Universal Licensing System and Coast Guard Vessel Documentation Center.

Last reported at 2018-Jun-23 06:00 UTC. Time now 2018-Jun-23 06:25 UTC.
Position N 33°46' W 118°12'.

Length 22 m.

Type: Ship. MMSI: 367483850.

Date/timePositionNaut miles runAvg speedWind from/ knotsBaromVisibWave heightAir tempDewpointWater temp
2018-Jun-23 06:00N 33°46' W 118°12'4 6.4
2018-Jun-23 05:22N 33°45' W 118°07'3 8.9
2018-Jun-23 05:00N 33°45' W 118°11'1 1.7
2018-Jun-23 04:30N 33°46' W 118°12'4 6.5
2018-Jun-23 03:53N 33°45' W 118°07'3 8.5
2018-Jun-23 03:30N 33°45' W 118°11'1 1.1
2018-Jun-23 02:39N 33°46' W 118°12'1 3.5
2018-Jun-23 02:30N 33°45' W 118°11'4 6.3
2018-Jun-23 01:55N 33°45' W 118°07'3 6.4
2018-Jun-23 01:30N 33°45' W 118°10'1 2.7
2018-Jun-23 00:59N 33°46' W 118°12'4 8.2
2018-Jun-23 00:30N 33°45' W 118°07'4 7.2
2018-Jun-23 00:00N 33°45' W 118°11'0 0.3
2018-Jun-22 23:30N 33°45' W 118°11'4 6.9
2018-Jun-22 22:58N 33°45' W 118°07'4 7.9
2018-Jun-22 22:29N 33°45' W 118°11'0 0.1
2018-Jun-22 21:42N 33°45' W 118°12'1 2.5
2018-Jun-22 21:30N 33°46' W 118°12'4 7.9
2018-Jun-22 21:00N 33°45' W 118°07'4 6.6
2018-Jun-22 20:25N 33°45' W 118°12'0 0.7
2018-Jun-22 19:58N 33°46' W 118°12'4 7.6
2018-Jun-22 19:27N 33°45' W 118°07'4 7.7
2018-Jun-22 18:57N 33°45' W 118°12'0 1.0
2018-Jun-22 18:30N 33°45' W 118°11'3 6.5
2018-Jun-22 17:58N 33°45' W 118°07'4 8.5
2018-Jun-22 17:30N 33°46' W 118°12'1 1.0
2018-Jun-22 16:59N 33°45' W 118°12'0 0.0
2018-Jun-22 16:26N 33°45' W 118°12'0 0.0
2018-Jun-22 15:50N 33°45' W 118°12'0 0.0
2018-Jun-22 15:29N 33°45' W 118°12'0 0.0
2018-Jun-22 14:56N 33°45' W 118°12'0 0.0
2018-Jun-22 14:29N 33°45' W 118°12'0 0.0
2018-Jun-22 13:56N 33°45' W 118°12'0 0.0
2018-Jun-22 03:12N 33°45' W 118°12'0 0.0
2018-Jun-22 03:00N 33°45' W 118°12'0 0.0
2018-Jun-22 02:30N 33°45' W 118°12'3 5.9
2018-Jun-22 02:00N 33°45' W 118°08'1 1.5
2018-Jun-22 01:29N 33°44' W 118°07'4 7.8
2018-Jun-22 01:00N 33°46' W 118°12'4 6.6
2018-Jun-22 00:25N 33°45' W 118°07'4 9.3
2018-Jun-22 00:00N 33°45' W 118°12'0 0.8
2018-Jun-21 23:28N 33°46' W 118°12'4 8.1
2018-Jun-21 22:59N 33°45' W 118°07'4 7.9
2018-Jun-21 22:30N 33°45' W 118°12'1 0.7
2018-Jun-21 21:47N 33°46' W 118°12'0 0.0
2018-Jun-21 21:29N 33°46' W 118°12'4 8.2
2018-Jun-21 21:00N 33°45' W 118°07'4 7.6
2018-Jun-21 20:30N 33°45' W 118°12'0 0.9
2018-Jun-21 20:00N 33°46' W 118°12'4 6.9
2018-Jun-21 19:26N 33°45' W 118°07'4 8.8
2018-Jun-21 19:00N 33°45' W 118°12'1 1.0
2018-Jun-21 18:29N 33°46' W 118°12'4 6.7
2018-Jun-21 17:53N 33°45' W 118°07'0 0.0
2018-Jun-21 17:30N 33°45' W 118°07'4 6.5
2018-Jun-21 16:55N 33°45' W 118°12'0 0.0
2018-Jun-21 16:22N 33°45' W 118°12'0 0.0
2018-Jun-21 15:58N 33°45' W 118°12'0 0.0
2018-Jun-21 02:38N 33°45' W 118°12'0 2.6
2018-Jun-21 02:29N 33°46' W 118°12'0 0.5
2018-Jun-21 01:56N 33°46' W 118°12'0 0.0
2018-Jun-21 01:29N 33°46' W 118°12'0 0.4
2018-Jun-21 00:59N 33°46' W 118°12'4 8.5
2018-Jun-21 00:30N 33°45' W 118°07'3 6.7
2018-Jun-20 23:59N 33°45' W 118°11'1 1.5
2018-Jun-20 23:30N 33°46' W 118°12'4 7.7
2018-Jun-20 22:59N 33°45' W 118°07'4 7.8
2018-Jun-20 22:30N 33°45' W 118°11'0 1.0
2018-Jun-20 21:59N 33°46' W 118°12'0 0.1
2018-Jun-20 21:28N 33°46' W 118°12'4 8.8
2018-Jun-20 21:00N 33°45' W 118°07'3 6.4
2018-Jun-20 20:29N 33°45' W 118°11'1 2.0
2018-Jun-20 19:59N 33°46' W 118°12'4 8.5
2018-Jun-20 19:31N 33°45' W 118°07'3 6.0
2018-Jun-20 19:00N 33°45' W 118°11'1 1.8
2018-Jun-20 18:29N 33°45' W 118°11'4 7.8
2018-Jun-20 18:00N 33°45' W 118°07'4 7.9
2018-Jun-20 17:30N 33°45' W 118°12'0 0.0
2018-Jun-20 17:00N 33°45' W 118°12'0 0.0
2018-Jun-20 16:27N 33°45' W 118°12'0 0.0
2018-Jun-20 16:00N 33°45' W 118°12'0 0.0
2018-Jun-20 15:30N 33°45' W 118°12'0 0.0
2018-Jun-20 14:57N 33°45' W 118°12'0 0.0
2018-Jun-20 02:42N 33°45' W 118°12'0 0.0
2018-Jun-20 02:30N 33°45' W 118°12'1 0.7
2018-Jun-20 01:44N 33°46' W 118°12'3 9.4
2018-Jun-20 01:28N 33°45' W 118°09'2 3.1
2018-Jun-20 00:58N 33°45' W 118°07'4 7.9
2018-Jun-20 00:27N 33°46' W 118°12'3 5.5
2018-Jun-19 23:58N 33°45' W 118°09'1 3.0
2018-Jun-19 23:29N 33°45' W 118°07'4 3.5
2018-Jun-19 22:20N 33°46' W 118°12'410.1
2018-Jun-19 21:58N 33°44' W 118°07'1 1.2
2018-Jun-19 21:30N 33°44' W 118°08'4 6.2
2018-Jun-19 20:56N 33°46' W 118°12'2 5.6
2018-Jun-19 20:30N 33°45' W 118°09'2 3.5
2018-Jun-19 20:00N 33°45' W 118°07'4 8.0
2018-Jun-19 19:30N 33°46' W 118°12'3 5.6
2018-Jun-19 19:00N 33°45' W 118°09'1 2.6
2018-Jun-19 18:29N 33°45' W 118°07'4 7.1
2018-Jun-19 17:55N 33°46' W 118°12'1 1.2
2018-Jun-19 17:31N 33°45' W 118°12'0 0.0
2018-Jun-19 17:01N 33°45' W 118°12'0 0.0
2018-Jun-19 16:31N 33°45' W 118°12'0 0.0
2018-Jun-19 15:58N 33°45' W 118°12'0 0.0
2018-Jun-19 15:25N 33°45' W 118°12'0 0.0
2018-Jun-19 15:01N 33°45' W 118°12'0 0.0
2018-Jun-19 02:40N 33°45' W 118°12'1 3.0
2018-Jun-19 02:30N 33°46' W 118°12'0 0.1
2018-Jun-19 01:53N 33°46' W 118°12'3 7.1
2018-Jun-19 01:28N 33°45' W 118°08'1 2.0
2018-Jun-19 00:58N 33°44' W 118°07'4 7.4
2018-Jun-19 00:26N 33°46' W 118°12'3 6.5
2018-Jun-19 00:00N 33°45' W 118°09'1 2.8
2018-Jun-18 23:30N 33°45' W 118°07'4 7.7
2018-Jun-18 22:58N 33°46' W 118°12'0 0.0
2018-Jun-18 22:28N 33°46' W 118°12'3 6.0
2018-Jun-18 22:00N 33°45' W 118°09'1 2.6
2018-Jun-18 21:29N 33°45' W 118°07'4 7.5
2018-Jun-18 20:57N 33°46' W 118°12'3 7.3
2018-Jun-18 20:30N 33°44' W 118°08'1 2.5
2018-Jun-18 20:00N 33°45' W 118°07'4 7.5
2018-Jun-18 19:28N 33°46' W 118°12'3 7.1
2018-Jun-18 19:00N 33°44' W 118°08'1 1.6
2018-Jun-18 18:30N 33°45' W 118°09'3 5.1
2018-Jun-18 18:00N 33°46' W 118°12'0 0.7
2018-Jun-18 17:29N 33°45' W 118°12'0 0.0
2018-Jun-18 16:59N 33°45' W 118°12'0 0.0
2018-Jun-18 16:20N 33°45' W 118°12'0 0.0
2018-Jun-18 15:56N 33°45' W 118°12'0 0.0
2018-Jun-18 15:26N 33°45' W 118°12'0 0.0
2018-Jun-18 05:59N 33°45' W 118°12'4 7.7
2018-Jun-18 05:29N 33°45' W 118°07'4 7.0
2018-Jun-18 04:58N 33°45' W 118°11'1 1.3
2018-Jun-18 04:30N 33°46' W 118°12'4 6.2
2018-Jun-18 03:52N 33°45' W 118°07'4 9.7
2018-Jun-18 03:29N 33°45' W 118°11'1 0.9
2018-Jun-18 02:53N 33°46' W 118°12'1 1.3
2018-Jun-18 02:30N 33°45' W 118°12'4 6.8
2018-Jun-18 01:56N 33°45' W 118°07'4 8.6
2018-Jun-18 01:30N 33°45' W 118°12'1 1.1
2018-Jun-18 01:00N 33°46' W 118°12'4 5.8
2018-Jun-18 00:19N 33°45' W 118°07'411.6
2018-Jun-18 00:01N 33°45' W 118°11'0 0.5
2018-Jun-17 23:30N 33°45' W 118°12'4 7.3
2018-Jun-17 22:59N 33°45' W 118°07'4 7.0
2018-Jun-17 22:26N 33°45' W 118°12'1 1.0
2018-Jun-17 21:56N 33°46' W 118°12'0 0.1
2018-Jun-17 21:29N 33°46' W 118°12'4 6.7
2018-Jun-17 20:53N 33°45' W 118°07'3 6.6
2018-Jun-17 20:30N 33°44' W 118°10'2 3.6
2018-Jun-17 19:59N 33°46' W 118°12'4 8.0
2018-Jun-17 19:29N 33°45' W 118°07'4 7.5
2018-Jun-17 18:58N 33°45' W 118°12'0 0.4
2018-Jun-17 18:31N 33°45' W 118°11'4 7.5
2018-Jun-17 18:00N 33°45' W 118°07'4 5.7
2018-Jun-17 17:20N 33°45' W 118°12'0 0.0
2018-Jun-17 16:57N 33°45' W 118°12'0 0.0
2018-Jun-17 16:18N 33°45' W 118°12'0 0.0
2018-Jun-17 15:57N 33°45' W 118°12'0 0.0
2018-Jun-17 15:30N 33°45' W 118°12'0 0.0
2018-Jun-17 15:00N 33°45' W 118°12'0 0.0
2018-Jun-17 14:25N 33°45' W 118°12'0 0.0
2018-Jun-17 13:58N 33°45' W 118°12'0 0.0
2018-Jun-17 08:17N 33°45' W 118°12'0 0.1
2018-Jun-17 07:55N 33°45' W 118°12'0 0.0
2018-Jun-17 07:28N 33°45' W 118°12'0 1.1
2018-Jun-17 07:01N 33°46' W 118°12'0 0.9
2018-Jun-17 06:29N 33°45' W 118°12'0 1.0
2018-Jun-17 06:00N 33°46' W 118°12'4 7.5
2018-Jun-17 05:28N 33°45' W 118°07'4 7.5
2018-Jun-17 04:58N 33°45' W 118°12'1 1.1
2018-Jun-17 04:30N 33°46' W 118°12'4 7.7
2018-Jun-17 03:59N 33°45' W 118°07'4 6.9
2018-Jun-17 03:26N 33°45' W 118°12'1 0.9
2018-Jun-17 02:51N 33°46' W 118°12'0 1.2
2018-Jun-17 02:30N 33°45' W 118°11'3 4.4
2018-Jun-17 01:43N 33°44' W 118°08'415.7
2018-Jun-17 01:30N 33°45' W 118°12'1 1.5
2018-Jun-17 01:00N 33°45' W 118°11'3 6.0
2018-Jun-17 00:29N 33°45' W 118°07'4 7.8
2018-Jun-17 00:00N 33°45' W 118°11'0 0.1
2018-Jun-16 23:30N 33°45' W 118°11'4 7.1
2018-Jun-16 22:58N 33°45' W 118°07'4 8.1
2018-Jun-16 22:30N 33°45' W 118°12'1 0.9
2018-Jun-16 21:58N 33°46' W 118°12'0 0.0
2018-Jun-16 21:30N 33°46' W 118°12'4 7.6
2018-Jun-16 20:58N 33°45' W 118°07'4 7.5
2018-Jun-16 20:29N 33°45' W 118°11'0 0.3
2018-Jun-16 20:00N 33°45' W 118°11'4 6.9
2018-Jun-16 19:28N 33°45' W 118°07'4 7.6
2018-Jun-16 18:58N 33°45' W 118°12'1 2.6
2018-Jun-16 18:30N 33°45' W 118°10'3 5.4
2018-Jun-16 18:00N 33°45' W 118°07'4 5.6
2018-Jun-16 17:19N 33°45' W 118°12'0 0.0
2018-Jun-16 16:58N 33°45' W 118°12'0 0.0
2018-Jun-16 16:24N 33°45' W 118°12'0 0.0
2018-Jun-16 16:00N 33°45' W 118°12'0 0.0
2018-Jun-16 15:30N 33°45' W 118°12'0 0.0
2018-Jun-16 15:00N 33°45' W 118°12'0 0.0
2018-Jun-16 05:58N 33°45' W 118°12'4 7.7
2018-Jun-16 05:29N 33°45' W 118°07'3 6.2
2018-Jun-16 05:00N 33°45' W 118°10'1 2.2
2018-Jun-16 04:29N 33°46' W 118°12'4 7.9
2018-Jun-16 03:58N 33°45' W 118°07'4 7.5
2018-Jun-16 03:29N 33°45' W 118°11'1 0.8
2018-Jun-16 02:51N 33°46' W 118°12'0 1.0
2018-Jun-16 02:29N 33°45' W 118°11'4 6.9
2018-Jun-16 01:56N 33°45' W 118°07'4 8.5
2018-Jun-16 01:30N 33°45' W 118°11'0 0.8
2018-Jun-16 00:59N 33°46' W 118°12'4 6.4
2018-Jun-16 00:23N 33°45' W 118°07'410.0
2018-Jun-16 00:00N 33°45' W 118°11'0 0.1
2018-Jun-15 23:29N 33°45' W 118°11'4 7.8
2018-Jun-15 23:00N 33°45' W 118°07'3 6.1
2018-Jun-15 22:30N 33°45' W 118°11'1 2.0
2018-Jun-15 22:00N 33°46' W 118°12'0 0.0
2018-Jun-15 21:30N 33°46' W 118°12'4 6.1
2018-Jun-15 20:50N 33°45' W 118°07'310.4
2018-Jun-15 20:30N 33°45' W 118°11'1 1.3
2018-Jun-15 20:00N 33°46' W 118°12'4 7.3
2018-Jun-15 19:27N 33°45' W 118°07'4 8.4
2018-Jun-15 19:00N 33°45' W 118°11'0 0.4
2018-Jun-15 18:30N 33°45' W 118°11'4 7.0
2018-Jun-15 17:59N 33°45' W 118°07'4 6.3
2018-Jun-15 17:23N 33°45' W 118°12'0 0.0
2018-Jun-15 16:52N 33°45' W 118°12'0 0.0
2018-Jun-15 16:25N 33°45' W 118°12'0 0.0
2018-Jun-15 15:38N 33°45' W 118°12'0 0.0
2018-Jun-15 15:20N 33°45' W 118°12'0 0.0
2018-Jun-15 14:49N 33°45' W 118°12'0 0.0
2018-Jun-15 14:16N 33°45' W 118°12'0 0.0
2018-Jun-15 01:58N 33°45' W 118°12'2 3.9
2018-Jun-15 01:30N 33°45' W 118°09'2 3.9
2018-Jun-15 01:00N 33°45' W 118°07'4 7.6
2018-Jun-15 00:28N 33°46' W 118°12'2 5.1
2018-Jun-15 00:00N 33°44' W 118°09'2 3.6
2018-Jun-14 23:29N 33°45' W 118°07'4 8.1
2018-Jun-14 22:59N 33°46' W 118°12'0 0.1
2018-Jun-14 22:29N 33°46' W 118°12'4 7.7
2018-Jun-14 22:00N 33°44' W 118°08'1 2.6
2018-Jun-14 21:28N 33°45' W 118°09'2 4.3
2018-Jun-14 20:54N 33°46' W 118°12'3 5.9
2018-Jun-14 20:28N 33°45' W 118°09'2 3.3
2018-Jun-14 20:00N 33°45' W 118°07'4 8.0
2018-Jun-14 19:29N 33°46' W 118°12'2 4.0
2018-Jun-14 18:59N 33°45' W 118°09'2 4.1
2018-Jun-14 18:29N 33°45' W 118°07'4 8.0
2018-Jun-14 17:59N 33°46' W 118°12'0 0.9
2018-Jun-14 17:26N 33°45' W 118°12'0 0.0
2018-Jun-14 17:00N 33°45' W 118°12'0 0.0
2018-Jun-14 16:29N 33°45' W 118°12'0 0.0
2018-Jun-14 03:24N 33°45' W 118°12'0 0.1
2018-Jun-14 02:58N 33°45' W 118°12'0 0.0
2018-Jun-14 02:25N 33°45' W 118°12'0 1.2
2018-Jun-14 02:00N 33°46' W 118°12'2 4.7
2018-Jun-14 01:30N 33°45' W 118°09'1 2.5
2018-Jun-14 01:00N 33°44' W 118°08'4 6.8
2018-Jun-14 00:29N 33°46' W 118°12'3 6.2
2018-Jun-14 00:00N 33°44' W 118°09'2 3.1
2018-Jun-13 23:30N 33°45' W 118°07'4 6.4
2018-Jun-13 22:52N 33°46' W 118°12'0 0.0
2018-Jun-13 22:18N 33°46' W 118°12'2 7.1
2018-Jun-13 21:59N 33°45' W 118°09'2 3.8
2018-Jun-13 21:30N 33°45' W 118°07'4 7.7
2018-Jun-13 20:59N 33°46' W 118°12'3 5.2
2018-Jun-13 20:29N 33°44' W 118°09'2 3.7
2018-Jun-13 20:00N 33°45' W 118°07'4 8.1
2018-Jun-13 19:30N 33°46' W 118°12'2 3.6
2018-Jun-13 19:00N 33°45' W 118°10'2 4.5
2018-Jun-13 18:30N 33°44' W 118°07'4 7.6
2018-Jun-13 18:00N 33°46' W 118°12'0 0.6
2018-Jun-13 17:28N 33°45' W 118°12'0 0.0
2018-Jun-13 16:40N 33°45' W 118°12'0 0.0
2018-Jun-13 16:28N 33°45' W 118°12'0 0.0
2018-Jun-13 15:49N 33°45' W 118°12'0 0.0
2018-Jun-13 15:28N 33°45' W 118°12'  
Track history (hours):
 
Tides and Currents Weather Stations Pressure Air Temp Water Temp Dewpoint Dewpoint Depression Visibility Wind Speed Wind Dir Waves Ship Positions

Aqualink II

Owner: Catalina Channel Express Inc, San Pedro, CA. More information available from US FCC via Universal Licensing System and Coast Guard Vessel Documentation Center.

Last reported at 2018-Jun-23 06:00 UTC. Time now 2018-Jun-23 06:25 UTC.
Position N 33°46' W 118°12'.

Length 22 m.

Type: Ship. MMSI: 367483850.

Date/timePositionNaut miles runAvg speedWind from/ knotsBaromVisibWave heightAir tempDewpointWater temp
2018-Jun-23 06:00N 33°46' W 118°12'4 6.4
2018-Jun-23 05:22N 33°45' W 118°07'3 8.9
2018-Jun-23 05:00N 33°45' W 118°11'1 1.7
2018-Jun-23 04:30N 33°46' W 118°12'4 6.5
2018-Jun-23 03:53N 33°45' W 118°07'3 8.5
2018-Jun-23 03:30N 33°45' W 118°11'1 1.1
2018-Jun-23 02:39N 33°46' W 118°12'1 3.5
2018-Jun-23 02:30N 33°45' W 118°11'4 6.3
2018-Jun-23 01:55N 33°45' W 118°07'3 6.4
2018-Jun-23 01:30N 33°45' W 118°10'1 2.7
2018-Jun-23 00:59N 33°46' W 118°12'4 8.2
2018-Jun-23 00:30N 33°45' W 118°07'4 7.2
2018-Jun-23 00:00N 33°45' W 118°11'0 0.3
2018-Jun-22 23:30N 33°45' W 118°11'4 6.9
2018-Jun-22 22:58N 33°45' W 118°07'4 7.9
2018-Jun-22 22:29N 33°45' W 118°11'0 0.1
2018-Jun-22 21:42N 33°45' W 118°12'1 2.5
2018-Jun-22 21:30N 33°46' W 118°12'4 7.9
2018-Jun-22 21:00N 33°45' W 118°07'4 6.6
2018-Jun-22 20:25N 33°45' W 118°12'0 0.7
2018-Jun-22 19:58N 33°46' W 118°12'4 7.6
2018-Jun-22 19:27N 33°45' W 118°07'4 7.7
2018-Jun-22 18:57N 33°45' W 118°12'0 1.0
2018-Jun-22 18:30N 33°45' W 118°11'3 6.5
2018-Jun-22 17:58N 33°45' W 118°07'4 8.5
2018-Jun-22 17:30N 33°46' W 118°12'1 1.0
2018-Jun-22 16:59N 33°45' W 118°12'0 0.0
2018-Jun-22 16:26N 33°45' W 118°12'0 0.0
2018-Jun-22 15:50N 33°45' W 118°12'0 0.0
2018-Jun-22 15:29N 33°45' W 118°12'0 0.0
2018-Jun-22 14:56N 33°45' W 118°12'0 0.0
2018-Jun-22 14:29N 33°45' W 118°12'0 0.0
2018-Jun-22 13:56N 33°45' W 118°12'0 0.0
2018-Jun-22 03:12N 33°45' W 118°12'0 0.0
2018-Jun-22 03:00N 33°45' W 118°12'0 0.0
2018-Jun-22 02:30N 33°45' W 118°12'3 5.9
2018-Jun-22 02:00N 33°45' W 118°08'1 1.5
2018-Jun-22 01:29N 33°44' W 118°07'4 7.8
2018-Jun-22 01:00N 33°46' W 118°12'4 6.6
2018-Jun-22 00:25N 33°45' W 118°07'4 9.3
2018-Jun-22 00:00N 33°45' W 118°12'0 0.8
2018-Jun-21 23:28N 33°46' W 118°12'4 8.1
2018-Jun-21 22:59N 33°45' W 118°07'4 7.9
2018-Jun-21 22:30N 33°45' W 118°12'1 0.7
2018-Jun-21 21:47N 33°46' W 118°12'0 0.0
2018-Jun-21 21:29N 33°46' W 118°12'4 8.2
2018-Jun-21 21:00N 33°45' W 118°07'4 7.6
2018-Jun-21 20:30N 33°45' W 118°12'0 0.9
2018-Jun-21 20:00N 33°46' W 118°12'4 6.9
2018-Jun-21 19:26N 33°45' W 118°07'4 8.8
2018-Jun-21 19:00N 33°45' W 118°12'1 1.0
2018-Jun-21 18:29N 33°46' W 118°12'4 6.7
2018-Jun-21 17:53N 33°45' W 118°07'0 0.0
2018-Jun-21 17:30N 33°45' W 118°07'4 6.5
2018-Jun-21 16:55N 33°45' W 118°12'0 0.0
2018-Jun-21 16:22N 33°45' W 118°12'0 0.0
2018-Jun-21 15:58N 33°45' W 118°12'0 0.0
2018-Jun-21 02:38N 33°45' W 118°12'0 2.6
2018-Jun-21 02:29N 33°46' W 118°12'0 0.5
2018-Jun-21 01:56N 33°46' W 118°12'0 0.0
2018-Jun-21 01:29N 33°46' W 118°12'0 0.4
2018-Jun-21 00:59N 33°46' W 118°12'4 8.5
2018-Jun-21 00:30N 33°45' W 118°07'3 6.7
2018-Jun-20 23:59N 33°45' W 118°11'1 1.5
2018-Jun-20 23:30N 33°46' W 118°12'4 7.7
2018-Jun-20 22:59N 33°45' W 118°07'4 7.8
2018-Jun-20 22:30N 33°45' W 118°11'0 1.0
2018-Jun-20 21:59N 33°46' W 118°12'0 0.1
2018-Jun-20 21:28N 33°46' W 118°12'4 8.8
2018-Jun-20 21:00N 33°45' W 118°07'3 6.4
2018-Jun-20 20:29N 33°45' W 118°11'1 2.0
2018-Jun-20 19:59N 33°46' W 118°12'4 8.5
2018-Jun-20 19:31N 33°45' W 118°07'3 6.0
2018-Jun-20 19:00N 33°45' W 118°11'1 1.8
2018-Jun-20 18:29N 33°45' W 118°11'4 7.8
2018-Jun-20 18:00N 33°45' W 118°07'4 7.9
2018-Jun-20 17:30N 33°45' W 118°12'0 0.0
2018-Jun-20 17:00N 33°45' W 118°12'0 0.0
2018-Jun-20 16:27N 33°45' W 118°12'0 0.0
2018-Jun-20 16:00N 33°45' W 118°12'0 0.0
2018-Jun-20 15:30N 33°45' W 118°12'0 0.0
2018-Jun-20 14:57N 33°45' W 118°12'0 0.0
2018-Jun-20 02:42N 33°45' W 118°12'0 0.0
2018-Jun-20 02:30N 33°45' W 118°12'1 0.7
2018-Jun-20 01:44N 33°46' W 118°12'3 9.4
2018-Jun-20 01:28N 33°45' W 118°09'2 3.1
2018-Jun-20 00:58N 33°45' W 118°07'4 7.9
2018-Jun-20 00:27N 33°46' W 118°12'3 5.5
2018-Jun-19 23:58N 33°45' W 118°09'1 3.0
2018-Jun-19 23:29N 33°45' W 118°07'4 3.5
2018-Jun-19 22:20N 33°46' W 118°12'410.1
2018-Jun-19 21:58N 33°44' W 118°07'1 1.2
2018-Jun-19 21:30N 33°44' W 118°08'4 6.2
2018-Jun-19 20:56N 33°46' W 118°12'2 5.6
2018-Jun-19 20:30N 33°45' W 118°09'2 3.5
2018-Jun-19 20:00N 33°45' W 118°07'4 8.0
2018-Jun-19 19:30N 33°46' W 118°12'3 5.6
2018-Jun-19 19:00N 33°45' W 118°09'1 2.6
2018-Jun-19 18:29N 33°45' W 118°07'4 7.1
2018-Jun-19 17:55N 33°46' W 118°12'1 1.2
2018-Jun-19 17:31N 33°45' W 118°12'0 0.0
2018-Jun-19 17:01N 33°45' W 118°12'0 0.0
2018-Jun-19 16:31N 33°45' W 118°12'0 0.0
2018-Jun-19 15:58N 33°45' W 118°12'0 0.0
2018-Jun-19 15:25N 33°45' W 118°12'0 0.0
2018-Jun-19 15:01N 33°45' W 118°12'0 0.0
2018-Jun-19 02:40N 33°45' W 118°12'1 3.0
2018-Jun-19 02:30N 33°46' W 118°12'0 0.1
2018-Jun-19 01:53N 33°46' W 118°12'3 7.1
2018-Jun-19 01:28N 33°45' W 118°08'1 2.0
2018-Jun-19 00:58N 33°44' W 118°07'4 7.4
2018-Jun-19 00:26N 33°46' W 118°12'3 6.5
2018-Jun-19 00:00N 33°45' W 118°09'1 2.8
2018-Jun-18 23:30N 33°45' W 118°07'4 7.7
2018-Jun-18 22:58N 33°46' W 118°12'0 0.0
2018-Jun-18 22:28N 33°46' W 118°12'3 6.0
2018-Jun-18 22:00N 33°45' W 118°09'1 2.6
2018-Jun-18 21:29N 33°45' W 118°07'4 7.5
2018-Jun-18 20:57N 33°46' W 118°12'3 7.3
2018-Jun-18 20:30N 33°44' W 118°08'1 2.5
2018-Jun-18 20:00N 33°45' W 118°07'4 7.5
2018-Jun-18 19:28N 33°46' W 118°12'3 7.1
2018-Jun-18 19:00N 33°44' W 118°08'1 1.6
2018-Jun-18 18:30N 33°45' W 118°09'3 5.1
2018-Jun-18 18:00N 33°46' W 118°12'0 0.7
2018-Jun-18 17:29N 33°45' W 118°12'0 0.0
2018-Jun-18 16:59N 33°45' W 118°12'0 0.0
2018-Jun-18 16:20N 33°45' W 118°12'0 0.0
2018-Jun-18 15:56N 33°45' W 118°12'0 0.0
2018-Jun-18 15:26N 33°45' W 118°12'0 0.0
2018-Jun-18 05:59N 33°45' W 118°12'4 7.7
2018-Jun-18 05:29N 33°45' W 118°07'4 7.0
2018-Jun-18 04:58N 33°45' W 118°11'1 1.3
2018-Jun-18 04:30N 33°46' W 118°12'4 6.2
2018-Jun-18 03:52N 33°45' W 118°07'4 9.7
2018-Jun-18 03:29N 33°45' W 118°11'1 0.9
2018-Jun-18 02:53N 33°46' W 118°12'1 1.3
2018-Jun-18 02:30N 33°45' W 118°12'4 6.8
2018-Jun-18 01:56N 33°45' W 118°07'4 8.6
2018-Jun-18 01:30N 33°45' W 118°12'1 1.1
2018-Jun-18 01:00N 33°46' W 118°12'4 5.8
2018-Jun-18 00:19N 33°45' W 118°07'411.6
2018-Jun-18 00:01N 33°45' W 118°11'0 0.5
2018-Jun-17 23:30N 33°45' W 118°12'4 7.3
2018-Jun-17 22:59N 33°45' W 118°07'4 7.0
2018-Jun-17 22:26N 33°45' W 118°12'1 1.0
2018-Jun-17 21:56N 33°46' W 118°12'0 0.1
2018-Jun-17 21:29N 33°46' W 118°12'4 6.7
2018-Jun-17 20:53N 33°45' W 118°07'3 6.6
2018-Jun-17 20:30N 33°44' W 118°10'2 3.6
2018-Jun-17 19:59N 33°46' W 118°12'4 8.0
2018-Jun-17 19:29N 33°45' W 118°07'4 7.5
2018-Jun-17 18:58N 33°45' W 118°12'0 0.4
2018-Jun-17 18:31N 33°45' W 118°11'4 7.5
2018-Jun-17 18:00N 33°45' W 118°07'4 5.7
2018-Jun-17 17:20N 33°45' W 118°12'0 0.0
2018-Jun-17 16:57N 33°45' W 118°12'0 0.0
2018-Jun-17 16:18N 33°45' W 118°12'0 0.0
2018-Jun-17 15:57N 33°45' W 118°12'0 0.0
2018-Jun-17 15:30N 33°45' W 118°12'0 0.0
2018-Jun-17 15:00N 33°45' W 118°12'0 0.0
2018-Jun-17 14:25N 33°45' W 118°12'0 0.0
2018-Jun-17 13:58N 33°45' W 118°12'0 0.0
2018-Jun-17 08:17N 33°45' W 118°12'0 0.1
2018-Jun-17 07:55N 33°45' W 118°12'0 0.0
2018-Jun-17 07:28N 33°45' W 118°12'0 1.1
2018-Jun-17 07:01N 33°46' W 118°12'0 0.9
2018-Jun-17 06:29N 33°45' W 118°12'0 1.0
2018-Jun-17 06:00N 33°46' W 118°12'4 7.5
2018-Jun-17 05:28N 33°45' W 118°07'4 7.5
2018-Jun-17 04:58N 33°45' W 118°12'1 1.1
2018-Jun-17 04:30N 33°46' W 118°12'4 7.7
2018-Jun-17 03:59N 33°45' W 118°07'4 6.9
2018-Jun-17 03:26N 33°45' W 118°12'1 0.9
2018-Jun-17 02:51N 33°46' W 118°12'0 1.2
2018-Jun-17 02:30N 33°45' W 118°11'3 4.4
2018-Jun-17 01:43N 33°44' W 118°08'415.7
2018-Jun-17 01:30N 33°45' W 118°12'1 1.5
2018-Jun-17 01:00N 33°45' W 118°11'3 6.0
2018-Jun-17 00:29N 33°45' W 118°07'4 7.8
2018-Jun-17 00:00N 33°45' W 118°11'0 0.1
2018-Jun-16 23:30N 33°45' W 118°11'4 7.1
2018-Jun-16 22:58N 33°45' W 118°07'4 8.1
2018-Jun-16 22:30N 33°45' W 118°12'1 0.9
2018-Jun-16 21:58N 33°46' W 118°12'0 0.0
2018-Jun-16 21:30N 33°46' W 118°12'4 7.6
2018-Jun-16 20:58N 33°45' W 118°07'4 7.5
2018-Jun-16 20:29N 33°45' W 118°11'0 0.3
2018-Jun-16 20:00N 33°45' W 118°11'4 6.9
2018-Jun-16 19:28N 33°45' W 118°07'4 7.6
2018-Jun-16 18:58N 33°45' W 118°12'1 2.6
2018-Jun-16 18:30N 33°45' W 118°10'3 5.4
2018-Jun-16 18:00N 33°45' W 118°07'4 5.6
2018-Jun-16 17:19N 33°45' W 118°12'0 0.0
2018-Jun-16 16:58N 33°45' W 118°12'0 0.0
2018-Jun-16 16:24N 33°45' W 118°12'0 0.0
2018-Jun-16 16:00N 33°45' W 118°12'0 0.0
2018-Jun-16 15:30N 33°45' W 118°12'0 0.0
2018-Jun-16 15:00N 33°45' W 118°12'0 0.0
2018-Jun-16 05:58N 33°45' W 118°12'4 7.7
2018-Jun-16 05:29N 33°45' W 118°07'3 6.2
2018-Jun-16 05:00N 33°45' W 118°10'1 2.2
2018-Jun-16 04:29N 33°46' W 118°12'4 7.9
2018-Jun-16 03:58N 33°45' W 118°07'4 7.5
2018-Jun-16 03:29N 33°45' W 118°11'1 0.8
2018-Jun-16 02:51N 33°46' W 118°12'0 1.0
2018-Jun-16 02:29N 33°45' W 118°11'4 6.9
2018-Jun-16 01:56N 33°45' W 118°07'4 8.5
2018-Jun-16 01:30N 33°45' W 118°11'0 0.8
2018-Jun-16 00:59N 33°46' W 118°12'4 6.4
2018-Jun-16 00:23N 33°45' W 118°07'410.0
2018-Jun-16 00:00N 33°45' W 118°11'0 0.1
2018-Jun-15 23:29N 33°45' W 118°11'4 7.8
2018-Jun-15 23:00N 33°45' W 118°07'3 6.1
2018-Jun-15 22:30N 33°45' W 118°11'1 2.0
2018-Jun-15 22:00N 33°46' W 118°12'0 0.0
2018-Jun-15 21:30N 33°46' W 118°12'4 6.1
2018-Jun-15 20:50N 33°45' W 118°07'310.4
2018-Jun-15 20:30N 33°45' W 118°11'1 1.3
2018-Jun-15 20:00N 33°46' W 118°12'4 7.3
2018-Jun-15 19:27N 33°45' W 118°07'4 8.4
2018-Jun-15 19:00N 33°45' W 118°11'0 0.4
2018-Jun-15 18:30N 33°45' W 118°11'4 7.0
2018-Jun-15 17:59N 33°45' W 118°07'4 6.3
2018-Jun-15 17:23N 33°45' W 118°12'0 0.0
2018-Jun-15 16:52N 33°45' W 118°12'0 0.0
2018-Jun-15 16:25N 33°45' W 118°12'0 0.0
2018-Jun-15 15:38N 33°45' W 118°12'0 0.0
2018-Jun-15 15:20N 33°45' W 118°12'0 0.0
2018-Jun-15 14:49N 33°45' W 118°12'0 0.0
2018-Jun-15 14:16N 33°45' W 118°12'0 0.0
2018-Jun-15 01:58N 33°45' W 118°12'2 3.9
2018-Jun-15 01:30N 33°45' W 118°09'2 3.9
2018-Jun-15 01:00N 33°45' W 118°07'4 7.6
2018-Jun-15 00:28N 33°46' W 118°12'2 5.1
2018-Jun-15 00:00N 33°44' W 118°09'2 3.6
2018-Jun-14 23:29N 33°45' W 118°07'4 8.1
2018-Jun-14 22:59N 33°46' W 118°12'0 0.1
2018-Jun-14 22:29N 33°46' W 118°12'4 7.7
2018-Jun-14 22:00N 33°44' W 118°08'1 2.6
2018-Jun-14 21:28N 33°45' W 118°09'2 4.3
2018-Jun-14 20:54N 33°46' W 118°12'3 5.9
2018-Jun-14 20:28N 33°45' W 118°09'2 3.3
2018-Jun-14 20:00N 33°45' W 118°07'4 8.0
2018-Jun-14 19:29N 33°46' W 118°12'2 4.0
2018-Jun-14 18:59N 33°45' W 118°09'2 4.1
2018-Jun-14 18:29N 33°45' W 118°07'4 8.0
2018-Jun-14 17:59N 33°46' W 118°12'0 0.9
2018-Jun-14 17:26N 33°45' W 118°12'0 0.0
2018-Jun-14 17:00N 33°45' W 118°12'0 0.0
2018-Jun-14 16:29N 33°45' W 118°12'0 0.0
2018-Jun-14 03:24N 33°45' W 118°12'0 0.1
2018-Jun-14 02:58N 33°45' W 118°12'0 0.0
2018-Jun-14 02:25N 33°45' W 118°12'0 1.2
2018-Jun-14 02:00N 33°46' W 118°12'2 4.7
2018-Jun-14 01:30N 33°45' W 118°09'1 2.5
2018-Jun-14 01:00N 33°44' W 118°08'4 6.8
2018-Jun-14 00:29N 33°46' W 118°12'3 6.2
2018-Jun-14 00:00N 33°44' W 118°09'2 3.1
2018-Jun-13 23:30N 33°45' W 118°07'4 6.4
2018-Jun-13 22:52N 33°46' W 118°12'0 0.0
2018-Jun-13 22:18N 33°46' W 118°12'2 7.1
2018-Jun-13 21:59N 33°45' W 118°09'2 3.8
2018-Jun-13 21:30N 33°45' W 118°07'4 7.7
2018-Jun-13 20:59N 33°46' W 118°12'3 5.2
2018-Jun-13 20:29N 33°44' W 118°09'2 3.7
2018-Jun-13 20:00N 33°45' W 118°07'4 8.1
2018-Jun-13 19:30N 33°46' W 118°12'2 3.6
2018-Jun-13 19:00N 33°45' W 118°10'2 4.5
2018-Jun-13 18:30N 33°44' W 118°07'4 7.6
2018-Jun-13 18:00N 33°46' W 118°12'0 0.6
2018-Jun-13 17:28N 33°45' W 118°12'0 0.0
2018-Jun-13 16:40N 33°45' W 118°12'0 0.0
2018-Jun-13 16:28N 33°45' W 118°12'0 0.0
2018-Jun-13 15:49N 33°45' W 118°12'0 0.0
2018-Jun-13 15:28N 33°45' W 118°12'  

Dump ship's entire track history